Flight Track Log - Related Links

Times and Time Zones

All times are in EDT time to prevent confusion due to time zone crossing. See the N143DE flight status page for this flight to view local times or setup timezone preferences in your user account.

Time Position Orientation Groundspeed Altitude Reporting Facility
EDT Latitude Longitude Course Direction KTS MPH feet Rate Location/Type
Sat 07:17:53 AM 35.8583 -78.8058 172° South 112 129 1,300  Level Washington Center
Sat 07:19:13 AM 35.7981 -78.7956 172° South 168 193 4,000 1,872 Climbing Washington Center
Sat 07:20:14 AM 35.7567 -78.7839 167° South 152 175 5,700 1,135 Climbing Washington Center
Sat 07:21:04 AM 35.7131 -78.7769 173° South 227 261 6,100 216 Climbing Washington Center
Sat 07:22:05 AM 35.6464 -78.7717 176° South 218 251 6,100 98 Level Washington Center
Sat 07:23:06 AM 35.5961 -78.7825 190° South 213 245 6,300 958 Climbing Washington Center
Sat 07:24:04 AM 35.5375 -78.7928 188° South 213 245 8,000 1,664 Climbing Washington Center
Sat 07:25:05 AM 35.4850 -78.7983 185° South 218 251 9,600 1,475 Climbing Washington Center
Sat 07:26:06 AM 35.4347 -78.8067 188° South 212 244 11,000 1,424 Climbing Washington Center
Sat 07:27:03 AM 35.3825 -78.8147 187° South 202 232 12,400 1,373 Climbing Washington Center
Sat 07:28:04 AM 35.3236 -78.8250 188° South 202 232 13,700 1,279 Climbing Washington Center
Sat 07:29:05 AM 35.2714 -78.8331 187° South 202 232 15,000 1,131 Climbing Washington Center
Sat 07:30:06 AM 35.2189 -78.8411 187° South 197 227 16,000 504 Climbing Washington Center
Sat 07:31:04 AM 35.1625 -78.8492 187° South 204 235 16,000  Level Washington Center
Sat 07:32:06 AM 35.0975 -78.8592 187° South 224 258 16,000  Level Washington Center
Sat 07:33:04 AM 35.0325 -78.8692 187° South 234 269 16,000  Level Washington Center
Sat 07:34:04 AM 34.9675 -78.8817 189° South 234 269 16,000  Level Washington Center
Sat 07:35:05 AM 34.9125 -78.9100 203° Southwest 239 275 16,000  Level Washington Center
Sat 07:36:39 AM 34.8097 -78.9558 200° South 244 281 16,000  Level Jacksonville Center
Sat 07:37:39 AM 34.7478 -78.9814 199° South 244 281 16,000  Level Jacksonville Center
Sat 07:38:39 AM 34.6861 -79.0094 201° Southwest 244 281 16,000  Level Jacksonville Center
Sat 07:39:39 AM 34.6225 -79.0375 200° South 244 281 16,000  Level Jacksonville Center
Sat 07:40:39 AM 34.5606 -79.0631 199° South 244 281 16,000  Level Jacksonville Center
Sat 07:41:39 AM 34.4908 -79.0989 203° Southwest 249 287 16,000  Level Jacksonville Center
Sat 07:42:39 AM 34.4311 -79.1267 201° Southwest 249 287 16,000  Level Jacksonville Center
Sat 07:43:39 AM 34.3672 -79.1544 200° South 249 287 16,000  Level Jacksonville Center
Sat 07:44:39 AM 34.3056 -79.1825 201° Southwest 249 287 16,000  Level Jacksonville Center
Sat 07:45:39 AM 34.2436 -79.2050 197° South 244 281 16,000  Level Jacksonville Center
Sat 07:46:39 AM 34.1797 -79.2353 201° Southwest 244 281 16,000  Level Jacksonville Center
Sat 07:47:39 AM 34.1200 -79.2606 199° South 243 280 16,000  Level Jacksonville Center
Sat 07:48:39 AM 34.0583 -79.2881 200° South 243 280 16,000  Level Jacksonville Center
Sat 07:49:39 AM 33.9964 -79.3133 199° South 243 280 16,000  Level Jacksonville Center
Sat 07:50:39 AM 33.9344 -79.3408 200° South 243 280 16,000  Level Jacksonville Center
Sat 07:51:39 AM 33.8706 -79.3658 198° South 243 280 16,000  Level Jacksonville Center
Sat 07:52:39 AM 33.8086 -79.3933 200° South 243 280 16,000  Level Jacksonville Center
Sat 07:53:39 AM 33.7489 -79.4183 199° South 243 280 16,000 -400 Level Jacksonville Center
Sat 07:54:39 AM 33.6953 -79.4428 201° Southwest 243 280 15,200 -950 Descending Jacksonville Center
Sat 07:55:39 AM 33.6272 -79.4728 200° South 253 291 14,100 -1,050 Descending Jacksonville Center
Sat 07:56:39 AM 33.5592 -79.5028 200° South 264 304 13,100 -1,000 Descending Jacksonville Center
Sat 07:57:39 AM 33.4892 -79.5306 198° South 269 310 12,100 -850 Descending Jacksonville Center
Sat 07:58:39 AM 33.4253 -79.5603 201° Southwest 264 304 11,400 -750 Descending Jacksonville Center
Sat 07:59:39 AM 33.3653 -79.5875 201° Southwest 251 289 10,600 -1,000 Descending Jacksonville Center
Sat 08:00:39 AM 33.3094 -79.6094 198° South 231 266 9,400 -1,100 Descending Jacksonville Center
Sat 08:01:39 AM 33.2558 -79.6311 199° South 221 254 8,400 -1,100 Descending Jacksonville Center
Sat 08:02:39 AM 33.2022 -79.6556 201° Southwest 210 242 7,200 -1,250 Descending Jacksonville Center
Sat 08:03:39 AM 33.1525 -79.6747 198° South 205 236 5,900 -1,450 Descending Jacksonville Center
Sat 08:04:39 AM 33.1250 -79.7378 243° Southwest 194 223 4,300 -1,700 Descending Jacksonville Center
Sat 08:05:39 AM 33.1014 -79.7956 244° Southwest 199 229 2,500 -1,150 Descending Jacksonville Center
Sat 08:06:39 AM 33.0708 -79.8314 225° Southwest 181 208 2,000 -500 Descending Jacksonville Center

Login

Don't have an account? Register now (free) for customized features, flight alerts, and more!